PWSweather.com
Personal Weather Stations
Station Observations
KCOGRAND2
Redlands, Southcamp Road & Dakota Circle, Grand Junction, CO 81507

Redlands, Southcamp Road & Dakota CircleGrand Junction, CO 81507

Lat: 39.055, Lon: -108.637

Elevation: 4870

Station Type: RadioShack WX200

High Low Average
Temperature 95.4°F35.2°F 66.2°F19.0°F 82.7°F28.2°F
Dew Point 44.6°F7.0°F 21.4°F-5.9°F 34.9°F1.6°F
Winds 15.0 mph SSE24.1 mph SSE 1.0 mph 1.6 mph 7.3 mph 11.7 mph
Wind Gusts 26.6 mph42.8 mph 2.7 mph4.3 mph 12.2 mph19.6 mph
Humidity 43% 11% 27%
Pressure 25.01 in846.90 in 24.92 in843.90 in -
Precipitation 0.00 in0.00 in - -
Hour Temp Dew Point Humidity Winds Wind Gusts Pressure Precip Precip Rate Daily Precip Total
12:02 AM 76.8°F24.9°C 22.3°F-5.4°C 13% 5.0 mph NNE8.0 kmh NNE 7.4 mph11.9 kmh 25.01 in846.9 mb 0.00 in0.0 mm 0.00 in0.0 mm 0.00 in0.0 mm
12:07 AM 75.6°F24.2°C 24.6°F-4.1°C 15% 3.0 mph NE4.8 kmh NE 4.9 mph7.9 kmh 25.01 in846.9 mb 0.00 in0.0 mm 0.00 in0.0 mm 0.00 in0.0 mm
12:12 AM 75.4°F24.1°C 24.4°F-4.2°C 15% 3.0 mph NE4.8 kmh NE 5.4 mph8.7 kmh 24.98 in845.9 mb 0.00 in0.0 mm 0.00 in0.0 mm 0.00 in0.0 mm
12:17 AM 76.8°F24.9°C 22.3°F-5.4°C 13% 4.0 mph NNE6.4 kmh NNE 7.4 mph11.9 kmh 24.98 in845.9 mb 0.00 in0.0 mm 0.00 in0.0 mm 0.00 in0.0 mm
12:22 AM 77.0°F25.0°C 22.5°F-5.3°C 13% 5.0 mph NNW8.0 kmh NNW 7.8 mph12.6 kmh 24.98 in845.9 mb 0.00 in0.0 mm 0.00 in0.0 mm 0.00 in0.0 mm
12:27 AM 77.2°F25.1°C 22.5°F-5.3°C 13% 6.0 mph N9.7 kmh N 10.1 mph16.3 kmh 24.98 in845.9 mb 0.00 in0.0 mm 0.00 in0.0 mm 0.00 in0.0 mm
12:32 AM 75.9°F24.4°C 21.6°F-5.8°C 13% 5.0 mph NNE8.0 kmh NNE 6.7 mph10.8 kmh 24.98 in845.9 mb 0.00 in0.0 mm 0.00 in0.0 mm 0.00 in0.0 mm
12:37 AM 75.7°F24.3°C 21.4°F-5.9°C 13% 4.0 mph NE6.4 kmh NE 6.3 mph10.1 kmh 24.98 in845.9 mb 0.00 in0.0 mm 0.00 in0.0 mm 0.00 in0.0 mm
12:42 AM 76.5°F24.7°C 21.9°F-5.6°C 13% 4.0 mph NE6.4 kmh NE 7.4 mph11.9 kmh 24.98 in845.9 mb 0.00 in0.0 mm 0.00 in0.0 mm 0.00 in0.0 mm
12:48 AM 76.1°F24.5°C 21.7°F-5.7°C 13% 4.0 mph NE6.4 kmh NE 5.4 mph8.7 kmh 24.98 in845.9 mb 0.00 in0.0 mm 0.00 in0.0 mm 0.00 in0.0 mm
12:53 AM 76.3°F24.6°C 21.7°F-5.7°C 13% 4.0 mph NE6.4 kmh NE 7.4 mph11.9 kmh 24.98 in845.9 mb 0.00 in0.0 mm 0.00 in0.0 mm 0.00 in0.0 mm
12:58 AM 77.7°F25.4°C -5537.2°C - 6.0 mph NNE9.7 kmh NNE 10.5 mph16.9 kmh 24.98 in845.9 mb 0.00 in0.0 mm 0.00 in0.0 mm 0.00 in0.0 mm
01:03 AM 76.8°F24.9°C 22.3°F-5.4°C 13% 5.0 mph N8.0 kmh N 5.8 mph9.3 kmh 24.98 in845.9 mb 0.00 in0.0 mm 0.00 in0.0 mm 0.00 in0.0 mm
01:08 AM 75.0°F23.9°C 24.3°F-4.3°C 15% 4.0 mph S6.4 kmh S 6.9 mph11.1 kmh 24.98 in845.9 mb 0.00 in0.0 mm 0.00 in0.0 mm 0.00 in0.0 mm
01:13 AM 74.7°F23.7°C 23.9°F-4.5°C 15% 5.0 mph SW8.0 kmh SW 6.3 mph10.1 kmh 24.98 in845.9 mb 0.00 in0.0 mm 0.00 in0.0 mm 0.00 in0.0 mm
01:18 AM 74.7°F23.7°C 23.9°F-4.5°C 15% 4.0 mph WSW6.4 kmh WSW 5.8 mph9.3 kmh 24.98 in845.9 mb 0.00 in0.0 mm 0.00 in0.0 mm 0.00 in0.0 mm
01:23 AM 75.7°F24.3°C 24.8°F-4.0°C 15% 4.0 mph W6.4 kmh W 6.3 mph10.1 kmh 24.98 in845.9 mb 0.00 in0.0 mm 0.00 in0.0 mm 0.00 in0.0 mm
01:28 AM 74.3°F23.5°C 28.0°F-2.2°C 18% 4.0 mph N6.4 kmh N 5.4 mph8.7 kmh 24.98 in845.9 mb 0.00 in0.0 mm 0.00 in0.0 mm 0.00 in0.0 mm
01:33 AM 73.2°F22.9°C 30.9°F-0.6°C 21% 3.0 mph ENE4.8 kmh ENE 4.9 mph7.9 kmh 24.98 in845.9 mb 0.00 in0.0 mm 0.00 in0.0 mm 0.00 in0.0 mm
01:38 AM 72.3°F22.4°C 31.3°F-0.4°C 22% 2.0 mph E3.2 kmh E 4.0 mph6.4 kmh 24.98 in845.9 mb 0.00 in0.0 mm 0.00 in0.0 mm 0.00 in0.0 mm
01:43 AM 72.5°F22.5°C 31.5°F-0.3°C 22% 2.0 mph E3.2 kmh E 4.0 mph6.4 kmh 24.98 in845.9 mb 0.00 in0.0 mm 0.00 in0.0 mm 0.00 in0.0 mm
01:48 AM 72.3°F22.4°C 31.3°F-0.4°C 22% 2.0 mph E3.2 kmh E 4.5 mph7.2 kmh 24.98 in845.9 mb 0.00 in0.0 mm 0.00 in0.0 mm 0.00 in0.0 mm
01:53 AM 72.5°F22.5°C 31.5°F-0.3°C 22% 1.0 mph E1.6 kmh E 4.0 mph6.4 kmh 24.98 in845.9 mb 0.00 in0.0 mm 0.00 in0.0 mm 0.00 in0.0 mm
01:58 AM 74.5°F23.6°C 32.0°F0.0°C 21% 1.0 mph E1.6 kmh E 4.0 mph6.4 kmh 24.98 in845.9 mb 0.00 in0.0 mm 0.00 in0.0 mm 0.00 in0.0 mm
02:03 AM 75.9°F24.4°C 32.0°F0.0°C 20% 4.0 mph NE6.4 kmh NE 8.7 mph14.0 kmh 24.98 in845.9 mb 0.00 in0.0 mm 0.00 in0.0 mm 0.00 in0.0 mm
02:08 AM 75.0°F23.9°C 31.3°F-0.4°C 20% 5.0 mph NNE8.0 kmh NNE 6.9 mph11.1 kmh 24.98 in845.9 mb 0.00 in0.0 mm 0.00 in0.0 mm 0.00 in0.0 mm
02:13 AM 76.1°F24.5°C 29.5°F-1.4°C 18% 5.0 mph N8.0 kmh N 8.7 mph14.0 kmh 24.98 in845.9 mb 0.00 in0.0 mm 0.00 in0.0 mm 0.00 in0.0 mm
02:18 AM 77.7°F25.4°C 26.4°F-3.1°C 15% 6.0 mph N9.7 kmh N 9.6 mph15.4 kmh 24.98 in845.9 mb 0.00 in0.0 mm 0.00 in0.0 mm 0.00 in0.0 mm
02:23 AM 78.3°F25.7°C 26.8°F-2.9°C 15% 6.0 mph NNW9.7 kmh NNW 10.1 mph16.3 kmh 24.98 in845.9 mb 0.00 in0.0 mm 0.00 in0.0 mm 0.00 in0.0 mm
02:28 AM 78.8°F26.0°C 21.9°F-5.6°C 12% 7.0 mph NNW11.3 kmh NNW 10.5 mph16.9 kmh 24.98 in845.9 mb 0.00 in0.0 mm 0.00 in0.0 mm 0.00 in0.0 mm
02:33 AM 78.4°F25.8°C 21.6°F-5.8°C 12% 7.0 mph NNW11.3 kmh NNW 9.2 mph14.8 kmh 24.98 in845.9 mb 0.00 in0.0 mm 0.00 in0.0 mm 0.00 in0.0 mm
02:38 AM 77.9°F25.5°C 23.2°F-4.9°C 13% 5.0 mph N8.0 kmh N 6.9 mph11.1 kmh 24.98 in845.9 mb 0.00 in0.0 mm 0.00 in0.0 mm 0.00 in0.0 mm
02:43 AM 78.4°F25.8°C 21.6°F-5.8°C 12% 4.0 mph N6.4 kmh N 8.3 mph13.4 kmh 24.95 in844.9 mb 0.00 in0.0 mm 0.00 in0.0 mm 0.00 in0.0 mm
02:48 AM 79.0°F26.1°C 22.1°F-5.5°C 12% 6.0 mph NNW9.7 kmh NNW 12.1 mph19.5 kmh 24.95 in844.9 mb 0.00 in0.0 mm 0.00 in0.0 mm 0.00 in0.0 mm
02:53 AM 78.3°F25.7°C 21.6°F-5.8°C 12% 7.0 mph NW11.3 kmh NW 9.2 mph14.8 kmh 24.95 in844.9 mb 0.00 in0.0 mm 0.00 in0.0 mm 0.00 in0.0 mm
02:58 AM 78.3°F25.7°C 21.6°F-5.8°C 12% 6.0 mph NW9.7 kmh NW 7.8 mph12.6 kmh 24.95 in844.9 mb 0.00 in0.0 mm 0.00 in0.0 mm 0.00 in0.0 mm
03:03 AM 77.9°F25.5°C 23.2°F-4.9°C 13% 5.0 mph NW8.0 kmh NW 7.8 mph12.6 kmh 24.95 in844.9 mb 0.00 in0.0 mm 0.00 in0.0 mm 0.00 in0.0 mm
03:08 AM 77.0°F25.0°C 22.5°F-5.3°C 13% 5.0 mph NW8.0 kmh NW 6.9 mph11.1 kmh 24.95 in844.9 mb 0.00 in0.0 mm 0.00 in0.0 mm 0.00 in0.0 mm
03:13 AM 77.2°F25.1°C 22.5°F-5.3°C 13% 4.0 mph NNW6.4 kmh NNW 6.9 mph11.1 kmh 24.95 in844.9 mb 0.00 in0.0 mm 0.00 in0.0 mm 0.00 in0.0 mm
03:18 AM 74.8°F23.8°C 33.4°F0.8°C 22% 6.0 mph NW9.7 kmh NW 12.5 mph20.1 kmh 24.95 in844.9 mb 0.00 in0.0 mm 0.00 in0.0 mm 0.00 in0.0 mm
03:23 AM 74.1°F23.4°C 35.1°F1.7°C 24% 9.0 mph WNW14.5 kmh WNW 12.5 mph20.1 kmh 24.95 in844.9 mb 0.00 in0.0 mm 0.00 in0.0 mm 0.00 in0.0 mm
03:28 AM 74.5°F23.6°C 34.2°F1.2°C 23% 8.0 mph W12.9 kmh W 10.1 mph16.3 kmh 24.95 in844.9 mb 0.00 in0.0 mm 0.00 in0.0 mm 0.00 in0.0 mm
03:33 AM 76.1°F24.5°C 33.3°F0.7°C 21% 7.0 mph NW11.3 kmh NW 8.3 mph13.4 kmh 24.95 in844.9 mb 0.00 in0.0 mm 0.00 in0.0 mm 0.00 in0.0 mm
03:38 AM 75.4°F24.1°C 33.8°F1.0°C 22% 6.0 mph NW9.7 kmh NW 9.2 mph14.8 kmh 24.95 in844.9 mb 0.00 in0.0 mm 0.00 in0.0 mm 0.00 in0.0 mm
03:43 AM 75.2°F24.0°C 33.8°F1.0°C 22% 6.0 mph NW9.7 kmh NW 12.5 mph20.1 kmh 24.95 in844.9 mb 0.00 in0.0 mm 0.00 in0.0 mm 0.00 in0.0 mm
03:48 AM 75.4°F24.1°C 33.8°F1.0°C 22% 7.0 mph NW11.3 kmh NW 14.8 mph23.8 kmh 24.95 in844.9 mb 0.00 in0.0 mm 0.00 in0.0 mm 0.00 in0.0 mm
03:53 AM 75.2°F24.0°C 33.8°F1.0°C 22% 8.0 mph NW12.9 kmh NW 10.5 mph16.9 kmh 24.95 in844.9 mb 0.00 in0.0 mm 0.00 in0.0 mm 0.00 in0.0 mm
03:58 AM 75.0°F23.9°C 33.6°F0.9°C 22% 7.0 mph NW11.3 kmh NW 10.1 mph16.3 kmh 24.95 in844.9 mb 0.00 in0.0 mm 0.00 in0.0 mm 0.00 in0.0 mm
04:03 AM 74.7°F23.7°C 34.3°F1.3°C 23% 7.0 mph NW11.3 kmh NW 12.1 mph19.5 kmh 24.95 in844.9 mb 0.00 in0.0 mm 0.00 in0.0 mm 0.00 in0.0 mm
04:08 AM 74.7°F23.7°C 34.3°F1.3°C 23% 8.0 mph NW12.9 kmh NW 13.4 mph21.6 kmh 24.95 in844.9 mb 0.00 in0.0 mm 0.00 in0.0 mm 0.00 in0.0 mm
04:13 AM 74.3°F23.5°C 35.2°F1.8°C 24% 8.0 mph NW12.9 kmh NW 13.4 mph21.6 kmh 24.95 in844.9 mb 0.00 in0.0 mm 0.00 in0.0 mm 0.00 in0.0 mm
04:18 AM 73.9°F23.3°C 36.0°F2.2°C 25% 8.0 mph NW12.9 kmh NW 11.6 mph18.7 kmh 24.95 in844.9 mb 0.00 in0.0 mm 0.00 in0.0 mm 0.00 in0.0 mm
04:23 AM 73.8°F23.2°C 35.8°F2.1°C 25% 5.0 mph NW8.0 kmh NW 7.4 mph11.9 kmh 24.95 in844.9 mb 0.00 in0.0 mm 0.00 in0.0 mm 0.00 in0.0 mm
04:28 AM 73.0°F22.8°C 36.1°F2.3°C 26% 3.0 mph N4.8 kmh N 5.4 mph8.7 kmh 24.95 in844.9 mb 0.00 in0.0 mm 0.00 in0.0 mm 0.00 in0.0 mm
04:33 AM 72.7°F22.6°C 36.7°F2.6°C 27% 2.0 mph ENE3.2 kmh ENE 3.6 mph5.8 kmh 24.95 in844.9 mb 0.00 in0.0 mm 0.00 in0.0 mm 0.00 in0.0 mm
04:38 AM 72.3°F22.4°C 38.3°F3.5°C 29% 1.0 mph ENE1.6 kmh ENE 4.5 mph7.2 kmh 24.95 in844.9 mb 0.00 in0.0 mm 0.00 in0.0 mm 0.00 in0.0 mm
04:43 AM 72.1°F22.3°C 38.1°F3.4°C 29% 2.0 mph ENE3.2 kmh ENE 4.5 mph7.2 kmh 24.95 in844.9 mb 0.00 in0.0 mm 0.00 in0.0 mm 0.00 in0.0 mm
04:48 AM 71.4°F21.9°C 39.2°F4.0°C 31% 2.0 mph E3.2 kmh E 4.0 mph6.4 kmh 24.95 in844.9 mb 0.00 in0.0 mm 0.00 in0.0 mm 0.00 in0.0 mm
04:53 AM 70.7°F21.5°C 39.4°F4.1°C 32% 3.0 mph E4.8 kmh E 4.5 mph7.2 kmh 24.95 in844.9 mb 0.00 in0.0 mm 0.00 in0.0 mm 0.00 in0.0 mm
04:58 AM 70.2°F21.2°C 39.7°F4.3°C 33% 3.0 mph E4.8 kmh E 5.4 mph8.7 kmh 24.95 in844.9 mb 0.00 in0.0 mm 0.00 in0.0 mm 0.00 in0.0 mm
05:03 AM 69.4°F20.8°C 39.9°F4.4°C 34% 3.0 mph ESE4.8 kmh ESE 4.5 mph7.2 kmh 24.95 in844.9 mb 0.00 in0.0 mm 0.00 in0.0 mm 0.00 in0.0 mm
05:08 AM 68.7°F20.4°C 39.9°F4.4°C 35% 2.0 mph SE3.2 kmh SE 4.5 mph7.2 kmh 24.95 in844.9 mb 0.00 in0.0 mm 0.00 in0.0 mm 0.00 in0.0 mm
05:13 AM 68.4°F20.2°C 39.6°F4.2°C 35% 2.0 mph SE3.2 kmh SE 3.1 mph5.0 kmh 24.95 in844.9 mb 0.00 in0.0 mm 0.00 in0.0 mm 0.00 in0.0 mm
05:18 AM 68.2°F20.1°C 40.3°F4.6°C 36% 2.0 mph SE3.2 kmh SE 5.4 mph8.7 kmh 24.95 in844.9 mb 0.00 in0.0 mm 0.00 in0.0 mm 0.00 in0.0 mm
05:23 AM 67.8°F19.9°C 41.4°F5.2°C 38% 3.0 mph SE4.8 kmh SE 5.8 mph9.3 kmh 24.95 in844.9 mb 0.00 in0.0 mm 0.00 in0.0 mm 0.00 in0.0 mm
05:28 AM 67.3°F19.6°C 41.5°F5.3°C 39% 3.0 mph S4.8 kmh S 5.4 mph8.7 kmh 24.95 in844.9 mb 0.00 in0.0 mm 0.00 in0.0 mm 0.00 in0.0 mm
05:33 AM 66.9°F19.4°C 42.4°F5.8°C 41% 4.0 mph S6.4 kmh S 6.7 mph10.8 kmh 24.95 in844.9 mb 0.00 in0.0 mm 0.00 in0.0 mm 0.00 in0.0 mm
05:38 AM 66.4°F19.1°C 42.6°F5.9°C 42% 3.0 mph SSE4.8 kmh SSE 5.4 mph8.7 kmh 24.95 in844.9 mb 0.00 in0.0 mm 0.00 in0.0 mm 0.00 in0.0 mm
05:43 AM 66.4°F19.1°C 43.2°F6.2°C 43% 2.0 mph SSE3.2 kmh SSE 5.4 mph8.7 kmh 24.95 in844.9 mb 0.00 in0.0 mm 0.00 in0.0 mm 0.00 in0.0 mm
05:48 AM 66.2°F19.0°C 43.0°F6.1°C 43% 3.0 mph SSE4.8 kmh SSE 5.8 mph9.3 kmh 24.95 in844.9 mb 0.00 in0.0 mm 0.00 in0.0 mm 0.00 in0.0 mm
05:53 AM 66.6°F19.2°C 43.3°F6.3°C 43% 3.0 mph S4.8 kmh S 5.8 mph9.3 kmh 24.95 in844.9 mb 0.00 in0.0 mm 0.00 in0.0 mm 0.00 in0.0 mm
05:58 AM 66.9°F19.4°C 43.7°F6.5°C 43% 4.0 mph S6.4 kmh S 7.4 mph11.9 kmh 24.95 in844.9 mb 0.00 in0.0 mm 0.00 in0.0 mm 0.00 in0.0 mm
06:03 AM 68.2°F20.1°C 42.3°F5.7°C 39% 6.0 mph SSE9.7 kmh SSE 7.4 mph11.9 kmh 24.95 in844.9 mb 0.00 in0.0 mm 0.00 in0.0 mm 0.00 in0.0 mm
06:08 AM 67.8°F19.9°C 42.6°F5.9°C 40% 6.0 mph SSE9.7 kmh SSE 7.8 mph12.6 kmh 24.95 in844.9 mb 0.00 in0.0 mm 0.00 in0.0 mm 0.00 in0.0 mm
06:13 AM 67.3°F19.6°C 42.8°F6.0°C 41% 5.0 mph S8.0 kmh S 7.4 mph11.9 kmh 24.95 in844.9 mb 0.00 in0.0 mm 0.00 in0.0 mm 0.00 in0.0 mm
06:18 AM 66.9°F19.4°C 43.7°F6.5°C 43% 5.0 mph S8.0 kmh S 6.7 mph10.8 kmh 24.95 in844.9 mb 0.00 in0.0 mm 0.00 in0.0 mm 0.00 in0.0 mm
06:23 AM 67.3°F19.6°C 42.8°F6.0°C 41% 5.0 mph S8.0 kmh S 8.3 mph13.4 kmh 24.95 in844.9 mb 0.00 in0.0 mm 0.00 in0.0 mm 0.00 in0.0 mm
06:28 AM 68.0°F20.0°C 42.8°F6.0°C 40% 6.0 mph S9.7 kmh S 10.1 mph16.3 kmh 24.98 in845.9 mb 0.00 in0.0 mm 0.00 in0.0 mm 0.00 in0.0 mm
06:33 AM 68.4°F20.2°C 42.4°F5.8°C 39% 7.0 mph S11.3 kmh S 10.1 mph16.3 kmh 24.98 in845.9 mb 0.00 in0.0 mm 0.00 in0.0 mm 0.00 in0.0 mm
06:38 AM 68.2°F20.1°C 42.3°F5.7°C 39% 6.0 mph S9.7 kmh S 6.7 mph10.8 kmh 24.98 in845.9 mb 0.00 in0.0 mm 0.00 in0.0 mm 0.00 in0.0 mm
06:43 AM 68.7°F20.4°C 41.4°F5.2°C 37% 5.0 mph S8.0 kmh S 8.7 mph14.0 kmh 24.98 in845.9 mb 0.00 in0.0 mm 0.00 in0.0 mm 0.00 in0.0 mm
06:48 AM 69.4°F20.8°C 40.6°F4.8°C 35% 6.0 mph S9.7 kmh S 10.1 mph16.3 kmh 24.98 in845.9 mb 0.00 in0.0 mm 0.00 in0.0 mm 0.00 in0.0 mm
06:53 AM 69.4°F20.8°C 41.4°F5.2°C 36% 6.0 mph S9.7 kmh S 6.9 mph11.1 kmh 24.98 in845.9 mb 0.00 in0.0 mm 0.00 in0.0 mm 0.00 in0.0 mm
06:58 AM 69.1°F20.6°C 41.0°F5.0°C 36% 4.0 mph S6.4 kmh S 6.3 mph10.1 kmh 24.98 in845.9 mb 0.00 in0.0 mm 0.00 in0.0 mm 0.00 in0.0 mm
07:03 AM 68.9°F20.5°C 41.5°F5.3°C 37% 2.0 mph S3.2 kmh S 4.5 mph7.2 kmh 24.98 in845.9 mb 0.00 in0.0 mm 0.00 in0.0 mm 0.00 in0.0 mm
07:08 AM 68.4°F20.2°C 42.4°F5.8°C 39% 3.0 mph S4.8 kmh S 6.7 mph10.8 kmh 24.98 in845.9 mb 0.00 in0.0 mm 0.00 in0.0 mm 0.00 in0.0 mm
07:13 AM 68.4°F20.2°C 42.4°F5.8°C 39% 4.0 mph S6.4 kmh S 4.9 mph7.9 kmh 24.98 in845.9 mb 0.00 in0.0 mm 0.00 in0.0 mm 0.00 in0.0 mm
07:18 AM 69.6°F20.9°C 41.5°F5.3°C 36% 4.0 mph S6.4 kmh S 8.7 mph14.0 kmh 24.98 in845.9 mb 0.00 in0.0 mm 0.00 in0.0 mm 0.00 in0.0 mm
07:24 AM 69.6°F20.9°C 41.5°F5.3°C 36% 4.0 mph SE6.4 kmh SE 5.8 mph9.3 kmh 24.98 in845.9 mb 0.00 in0.0 mm 0.00 in0.0 mm 0.00 in0.0 mm
07:29 AM 69.3°F20.7°C 42.6°F5.9°C 38% 3.0 mph ESE4.8 kmh ESE 4.5 mph7.2 kmh 24.98 in845.9 mb 0.00 in0.0 mm 0.00 in0.0 mm 0.00 in0.0 mm
07:34 AM 69.1°F20.6°C 43.2°F6.2°C 39% 2.0 mph ESE3.2 kmh ESE 4.9 mph7.9 kmh 24.98 in845.9 mb 0.00 in0.0 mm 0.00 in0.0 mm 0.00 in0.0 mm
07:39 AM 69.1°F20.6°C 43.2°F6.2°C 39% 2.0 mph E3.2 kmh E 4.0 mph6.4 kmh 24.98 in845.9 mb 0.00 in0.0 mm 0.00 in0.0 mm 0.00 in0.0 mm
07:44 AM 69.4°F20.8°C 42.8°F6.0°C 38% 1.0 mph E1.6 kmh E 3.1 mph5.0 kmh 24.98 in845.9 mb 0.00 in0.0 mm 0.00 in0.0 mm 0.00 in0.0 mm
07:49 AM 69.8°F21.0°C 43.0°F6.1°C 38% 2.0 mph ENE3.2 kmh ENE 5.4 mph8.7 kmh 24.98 in845.9 mb 0.00 in0.0 mm 0.00 in0.0 mm 0.00 in0.0 mm
07:54 AM 70.2°F21.2°C 43.3°F6.3°C 38% 2.0 mph NNE3.2 kmh NNE 4.9 mph7.9 kmh 24.98 in845.9 mb 0.00 in0.0 mm 0.00 in0.0 mm 0.00 in0.0 mm
07:59 AM 70.0°F21.1°C 43.2°F6.2°C 38% 2.0 mph NNE3.2 kmh NNE 5.4 mph8.7 kmh 25.01 in846.9 mb 0.00 in0.0 mm 0.00 in0.0 mm 0.00 in0.0 mm
08:04 AM 70.9°F21.6°C 44.6°F7.0°C 39% 3.0 mph NE4.8 kmh NE 4.9 mph7.9 kmh 25.01 in846.9 mb 0.00 in0.0 mm 0.00 in0.0 mm 0.00 in0.0 mm
08:09 AM 71.2°F21.8°C 44.2°F6.8°C 38% 3.0 mph NE4.8 kmh NE 4.0 mph6.4 kmh 25.01 in846.9 mb 0.00 in0.0 mm 0.00 in0.0 mm 0.00 in0.0 mm
08:14 AM 71.2°F21.8°C 44.2°F6.8°C 38% 2.0 mph NE3.2 kmh NE 4.5 mph7.2 kmh 25.01 in846.9 mb 0.00 in0.0 mm 0.00 in0.0 mm 0.00 in0.0 mm
08:19 AM 71.2°F21.8°C 43.7°F6.5°C 37% 2.0 mph NE3.2 kmh NE 4.5 mph7.2 kmh 25.01 in846.9 mb 0.00 in0.0 mm 0.00 in0.0 mm 0.00 in0.0 mm
08:24 AM 71.6°F22.0°C 41.7°F5.4°C 34% 2.0 mph N3.2 kmh N 4.9 mph7.9 kmh 25.01 in846.9 mb 0.00 in0.0 mm 0.00 in0.0 mm 0.00 in0.0 mm
08:29 AM 71.8°F22.1°C 42.6°F5.9°C 35% 1.0 mph N1.6 kmh N 2.7 mph4.3 kmh 25.01 in846.9 mb 0.00 in0.0 mm 0.00 in0.0 mm 0.00 in0.0 mm
08:34 AM 72.0°F22.2°C 42.8°F6.0°C 35% 1.0 mph NNW1.6 kmh NNW 4.5 mph7.2 kmh 25.01 in846.9 mb 0.00 in0.0 mm 0.00 in0.0 mm 0.00 in0.0 mm
08:39 AM 73.8°F23.2°C 42.1°F5.6°C 32% 3.0 mph NNW4.8 kmh NNW 5.4 mph8.7 kmh 25.01 in846.9 mb 0.00 in0.0 mm 0.00 in0.0 mm 0.00 in0.0 mm
08:44 AM 75.7°F24.3°C 43.0°F6.1°C 31% 4.0 mph NW6.4 kmh NW 6.3 mph10.1 kmh 25.01 in846.9 mb 0.00 in0.0 mm 0.00 in0.0 mm 0.00 in0.0 mm
08:49 AM 77.0°F25.0°C 39.6°F4.2°C 26% 4.0 mph WNW6.4 kmh WNW 5.8 mph9.3 kmh 25.01 in846.9 mb 0.00 in0.0 mm 0.00 in0.0 mm 0.00 in0.0 mm
08:54 AM 76.3°F24.6°C 37.9°F3.3°C 25% 4.0 mph WNW6.4 kmh WNW 5.4 mph8.7 kmh 25.01 in846.9 mb 0.00 in0.0 mm 0.00 in0.0 mm 0.00 in0.0 mm
08:59 AM 76.5°F24.7°C 39.0°F3.9°C 26% 2.0 mph NW3.2 kmh NW 4.9 mph7.9 kmh 25.01 in846.9 mb 0.00 in0.0 mm 0.00 in0.0 mm 0.00 in0.0 mm
09:04 AM 76.3°F24.6°C 42.6°F5.9°C 30% 1.0 mph NNW1.6 kmh NNW 4.5 mph7.2 kmh 25.01 in846.9 mb 0.00 in0.0 mm 0.00 in0.0 mm 0.00 in0.0 mm
09:09 AM 77.2°F25.1°C 42.4°F5.8°C 29% 2.0 mph NE3.2 kmh NE 4.5 mph7.2 kmh 25.01 in846.9 mb 0.00 in0.0 mm 0.00 in0.0 mm 0.00 in0.0 mm
09:14 AM 78.1°F25.6°C 39.4°F4.1°C 25% 2.0 mph NE3.2 kmh NE 5.4 mph8.7 kmh 25.01 in846.9 mb 0.00 in0.0 mm 0.00 in0.0 mm 0.00 in0.0 mm
09:19 AM 79.2°F26.2°C 40.3°F4.6°C 25% 2.0 mph E3.2 kmh E 4.5 mph7.2 kmh 25.01 in846.9 mb 0.00 in0.0 mm 0.00 in0.0 mm 0.00 in0.0 mm
09:24 AM 80.2°F26.8°C 37.9°F3.3°C 22% 2.0 mph E3.2 kmh E 5.4 mph8.7 kmh 25.01 in846.9 mb 0.00 in0.0 mm 0.00 in0.0 mm 0.00 in0.0 mm
09:29 AM 80.2°F26.8°C 36.7°F2.6°C 21% 3.0 mph ESE4.8 kmh ESE 4.9 mph7.9 kmh 25.01 in846.9 mb 0.00 in0.0 mm 0.00 in0.0 mm 0.00 in0.0 mm
09:34 AM 81.0°F27.2°C 37.4°F3.0°C 21% 3.0 mph ESE4.8 kmh ESE 4.5 mph7.2 kmh 25.01 in846.9 mb 0.00 in0.0 mm 0.00 in0.0 mm 0.00 in0.0 mm
09:39 AM 81.7°F27.6°C 36.7°F2.6°C 20% 2.0 mph ESE3.2 kmh ESE 5.4 mph8.7 kmh 25.01 in846.9 mb 0.00 in0.0 mm 0.00 in0.0 mm 0.00 in0.0 mm
09:44 AM 82.9°F28.3°C 28.8°F-1.8°C 14% 4.0 mph ESE6.4 kmh ESE 14.3 mph23.0 kmh 24.98 in845.9 mb 0.00 in0.0 mm 0.00 in0.0 mm 0.00 in0.0 mm
09:49 AM 83.3°F28.5°C -5537.2°C - 7.0 mph NNW11.3 kmh NNW 15.4 mph24.8 kmh 24.98 in845.9 mb 0.00 in0.0 mm 0.00 in0.0 mm 0.00 in0.0 mm
09:54 AM 84.7°F29.3°C -5537.2°C - 8.0 mph NW12.9 kmh NW 11.0 mph17.7 kmh 24.98 in845.9 mb 0.00 in0.0 mm 0.00 in0.0 mm 0.00 in0.0 mm
09:59 AM 85.3°F29.6°C 24.8°F-4.0°C 11% 7.0 mph NNW11.3 kmh NNW 16.8 mph27.0 kmh 24.98 in845.9 mb 0.00 in0.0 mm 0.00 in0.0 mm 0.00 in0.0 mm
10:04 AM 86.0°F30.0°C -5537.2°C - 6.0 mph E9.7 kmh E 9.6 mph15.4 kmh 24.98 in845.9 mb 0.00 in0.0 mm 0.00 in0.0 mm 0.00 in0.0 mm
10:09 AM 86.2°F30.1°C -5537.2°C - 6.0 mph E9.7 kmh E 17.2 mph27.7 kmh 24.98 in845.9 mb 0.00 in0.0 mm 0.00 in0.0 mm 0.00 in0.0 mm
10:14 AM 86.9°F30.5°C -5537.2°C - 8.0 mph ENE12.9 kmh ENE 13.4 mph21.6 kmh 24.98 in845.9 mb 0.00 in0.0 mm 0.00 in0.0 mm 0.00 in0.0 mm
10:19 AM 86.9°F30.5°C -5537.2°C - 7.0 mph NE11.3 kmh NE 10.1 mph16.3 kmh 24.98 in845.9 mb 0.00 in0.0 mm 0.00 in0.0 mm 0.00 in0.0 mm
10:24 AM 87.1°F30.6°C -5537.2°C - 6.0 mph ENE9.7 kmh ENE 13.0 mph20.9 kmh 24.98 in845.9 mb 0.00 in0.0 mm 0.00 in0.0 mm 0.00 in0.0 mm
10:29 AM 87.4°F30.8°C -5537.2°C - 4.0 mph E6.4 kmh E 8.7 mph14.0 kmh 24.98 in845.9 mb 0.00 in0.0 mm 0.00 in0.0 mm 0.00 in0.0 mm
10:34 AM 87.4°F30.8°C -5537.2°C - 4.0 mph ENE6.4 kmh ENE 8.7 mph14.0 kmh 24.98 in845.9 mb 0.00 in0.0 mm 0.00 in0.0 mm 0.00 in0.0 mm
10:39 AM 87.4°F30.8°C -5537.2°C - 6.0 mph ENE9.7 kmh ENE 15.4 mph24.8 kmh 24.98 in845.9 mb 0.00 in0.0 mm 0.00 in0.0 mm 0.00 in0.0 mm
10:44 AM 86.5°F30.3°C -5537.2°C - 8.0 mph E12.9 kmh E 15.4 mph24.8 kmh 24.98 in845.9 mb 0.00 in0.0 mm 0.00 in0.0 mm 0.00 in0.0 mm
10:49 AM 86.9°F30.5°C -5537.2°C - 9.0 mph SE14.5 kmh SE 17.2 mph27.7 kmh 24.98 in845.9 mb 0.00 in0.0 mm 0.00 in0.0 mm 0.00 in0.0 mm
10:54 AM 86.7°F30.4°C -5537.2°C - 9.0 mph ESE14.5 kmh ESE 15.2 mph24.5 kmh 24.98 in845.9 mb 0.00 in0.0 mm 0.00 in0.0 mm 0.00 in0.0 mm
10:59 AM 86.9°F30.5°C -5537.2°C - 9.0 mph ESE14.5 kmh ESE 13.4 mph21.6 kmh 24.98 in845.9 mb 0.00 in0.0 mm 0.00 in0.0 mm 0.00 in0.0 mm
11:04 AM 87.1°F30.6°C -5537.2°C - 8.0 mph E12.9 kmh E 14.3 mph23.0 kmh 24.98 in845.9 mb 0.00 in0.0 mm 0.00 in0.0 mm 0.00 in0.0 mm
11:09 AM 87.8°F31.0°C -5537.2°C - 8.0 mph ENE12.9 kmh ENE 14.3 mph23.0 kmh 24.98 in845.9 mb 0.00 in0.0 mm 0.00 in0.0 mm 0.00 in0.0 mm
11:14 AM 88.7°F31.5°C -5537.2°C - 9.0 mph ENE14.5 kmh ENE 13.9 mph22.4 kmh 24.98 in845.9 mb 0.00 in0.0 mm 0.00 in0.0 mm 0.00 in0.0 mm
11:19 AM 88.7°F31.5°C -5537.2°C - 8.0 mph E12.9 kmh E 12.1 mph19.5 kmh 24.98 in845.9 mb 0.00 in0.0 mm 0.00 in0.0 mm 0.00 in0.0 mm
11:24 AM 88.5°F31.4°C -5537.2°C - 6.0 mph E9.7 kmh E 11.2 mph18.0 kmh 24.98 in845.9 mb 0.00 in0.0 mm 0.00 in0.0 mm 0.00 in0.0 mm
11:29 AM 87.8°F31.0°C -5537.2°C - 8.0 mph ESE12.9 kmh ESE 15.4 mph24.8 kmh 24.98 in845.9 mb 0.00 in0.0 mm 0.00 in0.0 mm 0.00 in0.0 mm
11:34 AM 88.2°F31.2°C -5537.2°C - 8.0 mph ESE12.9 kmh ESE 15.2 mph24.5 kmh 24.98 in845.9 mb 0.00 in0.0 mm 0.00 in0.0 mm 0.00 in0.0 mm
11:39 AM 87.1°F30.6°C -5537.2°C - 9.0 mph ESE14.5 kmh ESE 17.2 mph27.7 kmh 24.98 in845.9 mb 0.00 in0.0 mm 0.00 in0.0 mm 0.00 in0.0 mm
11:44 AM 89.2°F31.8°C -5537.2°C - 8.0 mph E12.9 kmh E 9.6 mph15.4 kmh 24.98 in845.9 mb 0.00 in0.0 mm 0.00 in0.0 mm 0.00 in0.0 mm
11:49 AM 90.3°F32.4°C -5537.2°C - 8.0 mph E12.9 kmh E 13.4 mph21.6 kmh 24.98 in845.9 mb 0.00 in0.0 mm 0.00 in0.0 mm 0.00 in0.0 mm
11:54 AM 90.1°F32.3°C -5537.2°C - 10.0 mph E16.1 kmh E 21.0 mph33.8 kmh 24.98 in845.9 mb 0.00 in0.0 mm 0.00 in0.0 mm 0.00 in0.0 mm
11:59 AM 90.1°F32.3°C -5537.2°C - 10.0 mph ENE16.1 kmh ENE 21.9 mph35.2 kmh 24.98 in845.9 mb 0.00 in0.0 mm 0.00 in0.0 mm 0.00 in0.0 mm
12:04 PM 90.5°F32.5°C -5537.2°C - 10.0 mph ENE16.1 kmh ENE 18.6 mph29.9 kmh 24.98 in845.9 mb 0.00 in0.0 mm 0.00 in0.0 mm 0.00 in0.0 mm
12:09 PM 90.3°F32.4°C -5537.2°C - 11.0 mph ENE17.7 kmh ENE 21.9 mph35.2 kmh 24.98 in845.9 mb 0.00 in0.0 mm 0.00 in0.0 mm 0.00 in0.0 mm
12:14 PM 90.7°F32.6°C -5537.2°C - 12.0 mph NE19.3 kmh NE 22.4 mph36.0 kmh 24.98 in845.9 mb 0.00 in0.0 mm 0.00 in0.0 mm 0.00 in0.0 mm
12:19 PM 90.9°F32.7°C -5537.2°C - 12.0 mph ENE19.3 kmh ENE 18.1 mph29.1 kmh 24.98 in845.9 mb 0.00 in0.0 mm 0.00 in0.0 mm 0.00 in0.0 mm
12:24 PM 91.9°F33.3°C -5537.2°C - 10.0 mph ENE16.1 kmh ENE 17.7 mph28.5 kmh 24.98 in845.9 mb 0.00 in0.0 mm 0.00 in0.0 mm 0.00 in0.0 mm
12:29 PM 91.0°F32.8°C -5537.2°C - 10.0 mph ENE16.1 kmh ENE 18.6 mph29.9 kmh 24.95 in844.9 mb 0.00 in0.0 mm 0.00 in0.0 mm 0.00 in0.0 mm
12:34 PM 90.9°F32.7°C -5537.2°C - 11.0 mph E17.7 kmh E 18.6 mph29.9 kmh 24.95 in844.9 mb 0.00 in0.0 mm 0.00 in0.0 mm 0.00 in0.0 mm
12:39 PM 91.6°F33.1°C -5537.2°C - 10.0 mph E16.1 kmh E 17.7 mph28.5 kmh 24.95 in844.9 mb 0.00 in0.0 mm 0.00 in0.0 mm 0.00 in0.0 mm
12:44 PM 91.6°F33.1°C -5537.2°C - 11.0 mph ENE17.7 kmh ENE 20.6 mph33.2 kmh 24.95 in844.9 mb 0.00 in0.0 mm 0.00 in0.0 mm 0.00 in0.0 mm
12:49 PM 91.6°F33.1°C -5537.2°C - 13.0 mph ENE20.9 kmh ENE 19.9 mph32.0 kmh 24.95 in844.9 mb 0.00 in0.0 mm 0.00 in0.0 mm 0.00 in0.0 mm
12:54 PM 91.2°F32.9°C -5537.2°C - 12.0 mph E19.3 kmh E 18.1 mph29.1 kmh 24.95 in844.9 mb 0.00 in0.0 mm 0.00 in0.0 mm 0.00 in0.0 mm
12:59 PM 92.5°F33.6°C -5537.2°C - 11.0 mph E17.7 kmh E 19.0 mph30.6 kmh 24.95 in844.9 mb 0.00 in0.0 mm 0.00 in0.0 mm 0.00 in0.0 mm
01:04 PM 92.7°F33.7°C -5537.2°C - 12.0 mph E19.3 kmh E 20.6 mph33.2 kmh 24.95 in844.9 mb 0.00 in0.0 mm 0.00 in0.0 mm 0.00 in0.0 mm
01:09 PM 91.2°F32.9°C -5537.2°C - 12.0 mph ENE19.3 kmh ENE 20.6 mph33.2 kmh 24.95 in844.9 mb 0.00 in0.0 mm 0.00 in0.0 mm 0.00 in0.0 mm
01:14 PM 90.9°F32.7°C -5537.2°C - 12.0 mph ENE19.3 kmh ENE 20.1 mph32.3 kmh 24.95 in844.9 mb 0.00 in0.0 mm 0.00 in0.0 mm 0.00 in0.0 mm
01:19 PM 90.9°F32.7°C -5537.2°C - 12.0 mph E19.3 kmh E 19.9 mph32.0 kmh 24.95 in844.9 mb 0.00 in0.0 mm 0.00 in0.0 mm 0.00 in0.0 mm
01:24 PM 91.8°F33.2°C -5537.2°C - 10.0 mph E16.1 kmh E 15.4 mph24.8 kmh 24.95 in844.9 mb 0.00 in0.0 mm 0.00 in0.0 mm 0.00 in0.0 mm
01:29 PM 91.8°F33.2°C -5537.2°C - 9.0 mph ENE14.5 kmh ENE 16.3 mph26.2 kmh 24.95 in844.9 mb 0.00 in0.0 mm 0.00 in0.0 mm 0.00 in0.0 mm
01:34 PM 92.3°F33.5°C -5537.2°C - 11.0 mph NE17.7 kmh NE 19.0 mph30.6 kmh 24.95 in844.9 mb 0.00 in0.0 mm 0.00 in0.0 mm 0.00 in0.0 mm
01:39 PM 93.4°F34.1°C -5537.2°C - 10.0 mph ENE16.1 kmh ENE 13.9 mph22.4 kmh 24.95 in844.9 mb 0.00 in0.0 mm 0.00 in0.0 mm 0.00 in0.0 mm
01:44 PM 93.4°F34.1°C -5537.2°C - 9.0 mph ENE14.5 kmh ENE 22.4 mph36.0 kmh 24.95 in844.9 mb 0.00 in0.0 mm 0.00 in0.0 mm 0.00 in0.0 mm
01:49 PM 92.8°F33.8°C -5537.2°C - 12.0 mph ENE19.3 kmh ENE 21.5 mph34.6 kmh 24.95 in844.9 mb 0.00 in0.0 mm 0.00 in0.0 mm 0.00 in0.0 mm
01:54 PM 92.5°F33.6°C -5537.2°C - 13.0 mph ENE20.9 kmh ENE 19.9 mph32.0 kmh 24.95 in844.9 mb 0.00 in0.0 mm 0.00 in0.0 mm 0.00 in0.0 mm
01:59 PM 92.7°F33.7°C -5537.2°C - 11.0 mph ENE17.7 kmh ENE 23.7 mph38.1 kmh 24.95 in844.9 mb 0.00 in0.0 mm 0.00 in0.0 mm 0.00 in0.0 mm
02:04 PM 93.6°F34.2°C -5537.2°C - 11.0 mph ENE17.7 kmh ENE 20.6 mph33.2 kmh 24.95 in844.9 mb 0.00 in0.0 mm 0.00 in0.0 mm 0.00 in0.0 mm
02:09 PM 93.2°F34.0°C -5537.2°C - 11.0 mph ENE17.7 kmh ENE 17.7 mph28.5 kmh 24.95 in844.9 mb 0.00 in0.0 mm 0.00 in0.0 mm 0.00 in0.0 mm
02:14 PM 93.0°F33.9°C -5537.2°C - 11.0 mph NE17.7 kmh NE 19.5 mph31.4 kmh 24.92 in843.9 mb 0.00 in0.0 mm 0.00 in0.0 mm 0.00 in0.0 mm
02:19 PM 93.0°F33.9°C -5537.2°C - 11.0 mph NE17.7 kmh NE 14.3 mph23.0 kmh 24.92 in843.9 mb 0.00 in0.0 mm 0.00 in0.0 mm 0.00 in0.0 mm
02:24 PM 91.9°F33.3°C -5537.2°C - 10.0 mph NE16.1 kmh NE 15.2 mph24.5 kmh 24.92 in843.9 mb 0.00 in0.0 mm 0.00 in0.0 mm 0.00 in0.0 mm
02:29 PM 91.8°F33.2°C -5537.2°C - 11.0 mph ENE17.7 kmh ENE 18.6 mph29.9 kmh 24.92 in843.9 mb 0.00 in0.0 mm 0.00 in0.0 mm 0.00 in0.0 mm
02:34 PM 91.4°F33.0°C -5537.2°C - 12.0 mph E19.3 kmh E 17.2 mph27.7 kmh 24.92 in843.9 mb 0.00 in0.0 mm 0.00 in0.0 mm 0.00 in0.0 mm
02:39 PM 93.0°F33.9°C -5537.2°C - 12.0 mph ESE19.3 kmh ESE 23.3 mph37.5 kmh 24.92 in843.9 mb 0.00 in0.0 mm 0.00 in0.0 mm 0.00 in0.0 mm
02:44 PM 93.2°F34.0°C -5537.2°C - 11.0 mph ESE17.7 kmh ESE 16.3 mph26.2 kmh 24.92 in843.9 mb 0.00 in0.0 mm 0.00 in0.0 mm 0.00 in0.0 mm
02:49 PM 92.3°F33.5°C -5537.2°C - 11.0 mph ESE17.7 kmh ESE 17.7 mph28.5 kmh 24.92 in843.9 mb 0.00 in0.0 mm 0.00 in0.0 mm 0.00 in0.0 mm
02:54 PM 93.4°F34.1°C -5537.2°C - 10.0 mph E16.1 kmh E 19.5 mph31.4 kmh 24.92 in843.9 mb 0.00 in0.0 mm 0.00 in0.0 mm 0.00 in0.0 mm
02:59 PM 94.3°F34.6°C -5537.2°C - 8.0 mph E12.9 kmh E 11.0 mph17.7 kmh 24.92 in843.9 mb 0.00 in0.0 mm 0.00 in0.0 mm 0.00 in0.0 mm
03:05 PM 93.7°F34.3°C -5537.2°C - 9.0 mph E14.5 kmh E 20.6 mph33.2 kmh 24.92 in843.9 mb 0.00 in0.0 mm 0.00 in0.0 mm 0.00 in0.0 mm
03:10 PM 93.6°F34.2°C -5537.2°C - 12.0 mph ESE19.3 kmh ESE 21.9 mph35.2 kmh 24.92 in843.9 mb 0.00 in0.0 mm 0.00 in0.0 mm 0.00 in0.0 mm
03:15 PM 93.0°F33.9°C -5537.2°C - 14.0 mph ESE22.5 kmh ESE 21.5 mph34.6 kmh 24.92 in843.9 mb 0.00 in0.0 mm 0.00 in0.0 mm 0.00 in0.0 mm
03:20 PM 93.2°F34.0°C -5537.2°C - 15.0 mph ESE24.1 kmh ESE 22.8 mph36.7 kmh 24.92 in843.9 mb 0.00 in0.0 mm 0.00 in0.0 mm 0.00 in0.0 mm
03:25 PM 93.7°F34.3°C -5537.2°C - 14.0 mph E22.5 kmh E 21.5 mph34.6 kmh 24.92 in843.9 mb 0.00 in0.0 mm 0.00 in0.0 mm 0.00 in0.0 mm
03:30 PM 94.3°F34.6°C -5537.2°C - 12.0 mph E19.3 kmh E 19.9 mph32.0 kmh 24.92 in843.9 mb 0.00 in0.0 mm 0.00 in0.0 mm 0.00 in0.0 mm
03:35 PM 94.5°F34.7°C -5537.2°C - 11.0 mph ESE17.7 kmh ESE 18.1 mph29.1 kmh 24.92 in843.9 mb 0.00 in0.0 mm 0.00 in0.0 mm 0.00 in0.0 mm
03:40 PM 94.6°F34.8°C -5537.2°C - 10.0 mph E16.1 kmh E 22.4 mph36.0 kmh 24.92 in843.9 mb 0.00 in0.0 mm 0.00 in0.0 mm 0.00 in0.0 mm
03:45 PM 95.0°F35.0°C -5537.2°C - 10.0 mph E16.1 kmh E 17.7 mph28.5 kmh 24.92 in843.9 mb 0.00 in0.0 mm 0.00 in0.0 mm 0.00 in0.0 mm
03:50 PM 93.7°F34.3°C -5537.2°C - 14.0 mph E22.5 kmh E 26.6 mph42.8 kmh 24.92 in843.9 mb 0.00 in0.0 mm 0.00 in0.0 mm 0.00 in0.0 mm
03:55 PM 94.6°F34.8°C -5537.2°C - 14.0 mph E22.5 kmh E 18.1 mph29.1 kmh 24.92 in843.9 mb 0.00 in0.0 mm 0.00 in0.0 mm 0.00 in0.0 mm
04:00 PM 94.8°F34.9°C -5537.2°C - 13.0 mph E20.9 kmh E 24.2 mph38.9 kmh 24.92 in843.9 mb 0.00 in0.0 mm 0.00 in0.0 mm 0.00 in0.0 mm
04:05 PM 94.8°F34.9°C -5537.2°C - 14.0 mph E22.5 kmh E 20.6 mph33.2 kmh 24.92 in843.9 mb 0.00 in0.0 mm 0.00 in0.0 mm 0.00 in0.0 mm
04:10 PM 95.0°F35.0°C -5537.2°C - 12.0 mph ESE19.3 kmh ESE 17.7 mph28.5 kmh 24.92 in843.9 mb 0.00 in0.0 mm 0.00 in0.0 mm 0.00 in0.0 mm
04:15 PM 95.4°F35.2°C -5537.2°C - 10.0 mph ESE16.1 kmh ESE 18.1 mph29.1 kmh 24.92 in843.9 mb 0.00 in0.0 mm 0.00 in0.0 mm 0.00 in0.0 mm
04:20 PM 95.4°F35.2°C -5537.2°C - 10.0 mph ESE16.1 kmh ESE 17.2 mph27.7 kmh 24.92 in843.9 mb 0.00 in0.0 mm 0.00 in0.0 mm 0.00 in0.0 mm
04:25 PM 95.2°F35.1°C -5537.2°C - 11.0 mph E17.7 kmh E 19.0 mph30.6 kmh 24.92 in843.9 mb 0.00 in0.0 mm 0.00 in0.0 mm 0.00 in0.0 mm
04:30 PM 94.8°F34.9°C -5537.2°C - 11.0 mph ESE17.7 kmh ESE 17.7 mph28.5 kmh 24.92 in843.9 mb 0.00 in0.0 mm 0.00 in0.0 mm 0.00 in0.0 mm
04:35 PM 95.0°F35.0°C -5537.2°C - 12.0 mph ESE19.3 kmh ESE 19.5 mph31.4 kmh 24.92 in843.9 mb 0.00 in0.0 mm 0.00 in0.0 mm 0.00 in0.0 mm
04:40 PM 95.0°F35.0°C -5537.2°C - 11.0 mph E17.7 kmh E 16.3 mph26.2 kmh 24.92 in843.9 mb 0.00 in0.0 mm 0.00 in0.0 mm 0.00 in0.0 mm
04:45 PM 95.2°F35.1°C -5537.2°C - 9.0 mph ESE14.5 kmh ESE 16.3 mph26.2 kmh 24.92 in843.9 mb 0.00 in0.0 mm 0.00 in0.0 mm 0.00 in0.0 mm
04:50 PM 94.5°F34.7°C -5537.2°C - 10.0 mph SE16.1 kmh SE 21.0 mph33.8 kmh 24.92 in843.9 mb 0.00 in0.0 mm 0.00 in0.0 mm 0.00 in0.0 mm
04:55 PM 94.3°F34.6°C -5537.2°C - 11.0 mph SE17.7 kmh SE 19.5 mph31.4 kmh 24.92 in843.9 mb 0.00 in0.0 mm 0.00 in0.0 mm 0.00 in0.0 mm
05:00 PM 94.3°F34.6°C -5537.2°C - 11.0 mph ESE17.7 kmh ESE 17.2 mph27.7 kmh 24.92 in843.9 mb 0.00 in0.0 mm 0.00 in0.0 mm 0.00 in0.0 mm
05:05 PM 94.6°F34.8°C -5537.2°C - 11.0 mph ESE17.7 kmh ESE 18.6 mph29.9 kmh 24.92 in843.9 mb 0.00 in0.0 mm 0.00 in0.0 mm 0.00 in0.0 mm
05:10 PM 93.7°F34.3°C -5537.2°C - 12.0 mph SE19.3 kmh SE 25.3 mph40.7 kmh 24.92 in843.9 mb 0.00 in0.0 mm 0.00 in0.0 mm 0.00 in0.0 mm
05:15 PM 94.1°F34.5°C -5537.2°C - 12.0 mph SE19.3 kmh SE 17.7 mph28.5 kmh 24.92 in843.9 mb 0.00 in0.0 mm 0.00 in0.0 mm 0.00 in0.0 mm
05:20 PM 93.9°F34.4°C -5537.2°C - 13.0 mph SE20.9 kmh SE 25.7 mph41.4 kmh 24.92 in843.9 mb 0.00 in0.0 mm 0.00 in0.0 mm 0.00 in0.0 mm
05:25 PM 94.5°F34.7°C -5537.2°C - 15.0 mph SSE24.1 kmh SSE 25.7 mph41.4 kmh 24.92 in843.9 mb 0.00 in0.0 mm 0.00 in0.0 mm 0.00 in0.0 mm
05:30 PM 93.7°F34.3°C -5537.2°C - 14.0 mph SSE22.5 kmh SSE 19.0 mph30.6 kmh 24.92 in843.9 mb 0.00 in0.0 mm 0.00 in0.0 mm 0.00 in0.0 mm
05:35 PM 93.4°F34.1°C -5537.2°C - 11.0 mph SE17.7 kmh SE 20.6 mph33.2 kmh 24.92 in843.9 mb 0.00 in0.0 mm 0.00 in0.0 mm 0.00 in0.0 mm
05:40 PM 93.7°F34.3°C -5537.2°C - 8.0 mph ESE12.9 kmh ESE 11.2 mph18.0 kmh 24.92 in843.9 mb 0.00 in0.0 mm 0.00 in0.0 mm 0.00 in0.0 mm
05:45 PM 93.4°F34.1°C -5537.2°C - 8.0 mph ESE12.9 kmh ESE 20.1 mph32.3 kmh 24.92 in843.9 mb 0.00 in0.0 mm 0.00 in0.0 mm 0.00 in0.0 mm
05:50 PM 93.4°F34.1°C -5537.2°C - 9.0 mph SE14.5 kmh SE 14.3 mph23.0 kmh 24.92 in843.9 mb 0.00 in0.0 mm 0.00 in0.0 mm 0.00 in0.0 mm
05:55 PM 93.0°F33.9°C -5537.2°C - 11.0 mph SE17.7 kmh SE 21.9 mph35.2 kmh 24.92 in843.9 mb 0.00 in0.0 mm 0.00 in0.0 mm 0.00 in0.0 mm
06:00 PM 93.0°F33.9°C -5537.2°C - 12.0 mph SE19.3 kmh SE 18.1 mph29.1 kmh 24.92 in843.9 mb 0.00 in0.0 mm 0.00 in0.0 mm 0.00 in0.0 mm
06:05 PM 93.0°F33.9°C -5537.2°C - 10.0 mph ESE16.1 kmh ESE 15.9 mph25.6 kmh 24.92 in843.9 mb 0.00 in0.0 mm 0.00 in0.0 mm 0.00 in0.0 mm
06:10 PM 93.2°F34.0°C -5537.2°C - 10.0 mph SE16.1 kmh SE 15.4 mph24.8 kmh 24.92 in843.9 mb 0.00 in0.0 mm 0.00 in0.0 mm 0.00 in0.0 mm
06:15 PM 92.3°F33.5°C -5537.2°C - 10.0 mph SE16.1 kmh SE 19.9 mph32.0 kmh 24.92 in843.9 mb 0.00 in0.0 mm 0.00 in0.0 mm 0.00 in0.0 mm
06:20 PM 92.1°F33.4°C -5537.2°C - 11.0 mph ESE17.7 kmh ESE 16.3 mph26.2 kmh 24.92 in843.9 mb 0.00 in0.0 mm 0.00 in0.0 mm 0.00 in0.0 mm
06:25 PM 92.5°F33.6°C -5537.2°C - 10.0 mph ESE16.1 kmh ESE 14.8 mph23.8 kmh 24.92 in843.9 mb 0.00 in0.0 mm 0.00 in0.0 mm 0.00 in0.0 mm
06:30 PM 92.1°F33.4°C -5537.2°C - 9.0 mph SE14.5 kmh SE 15.4 mph24.8 kmh 24.92 in843.9 mb 0.00 in0.0 mm 0.00 in0.0 mm 0.00 in0.0 mm
06:35 PM 92.3°F33.5°C -5537.2°C - 9.0 mph ESE14.5 kmh ESE 13.0 mph20.9 kmh 24.92 in843.9 mb 0.00 in0.0 mm 0.00 in0.0 mm 0.00 in0.0 mm
06:40 PM 92.3°F33.5°C -5537.2°C - 9.0 mph ESE14.5 kmh ESE 14.8 mph23.8 kmh 24.92 in843.9 mb 0.00 in0.0 mm 0.00 in0.0 mm 0.00 in0.0 mm
06:45 PM 91.8°F33.2°C -5537.2°C - 9.0 mph SE14.5 kmh SE 14.8 mph23.8 kmh 24.92 in843.9 mb 0.00 in0.0 mm 0.00 in0.0 mm 0.00 in0.0 mm
06:50 PM 91.8°F33.2°C -5537.2°C - 9.0 mph ESE14.5 kmh ESE 14.8 mph23.8 kmh 24.92 in843.9 mb 0.00 in0.0 mm 0.00 in0.0 mm 0.00 in0.0 mm
06:55 PM 91.8°F33.2°C -5537.2°C - 8.0 mph E12.9 kmh E 12.1 mph19.5 kmh 24.92 in843.9 mb 0.00 in0.0 mm 0.00 in0.0 mm 0.00 in0.0 mm
07:00 PM 91.6°F33.1°C -5537.2°C - 7.0 mph SE11.3 kmh SE 13.9 mph22.4 kmh 24.92 in843.9 mb 0.00 in0.0 mm 0.00 in0.0 mm 0.00 in0.0 mm
07:05 PM 91.6°F33.1°C -5537.2°C - 7.0 mph ESE11.3 kmh ESE 12.1 mph19.5 kmh 24.92 in843.9 mb 0.00 in0.0 mm 0.00 in0.0 mm 0.00 in0.0 mm
07:10 PM 91.4°F33.0°C -5537.2°C - 8.0 mph E12.9 kmh E 15.9 mph25.6 kmh 24.92 in843.9 mb 0.00 in0.0 mm 0.00 in0.0 mm 0.00 in0.0 mm
07:15 PM 91.2°F32.9°C -5537.2°C - 8.0 mph ESE12.9 kmh ESE 14.8 mph23.8 kmh 24.92 in843.9 mb 0.00 in0.0 mm 0.00 in0.0 mm 0.00 in0.0 mm
07:20 PM 90.9°F32.7°C -5537.2°C - 10.0 mph ESE16.1 kmh ESE 16.3 mph26.2 kmh 24.92 in843.9 mb 0.00 in0.0 mm 0.00 in0.0 mm 0.00 in0.0 mm
07:25 PM 90.7°F32.6°C -5537.2°C - 10.0 mph E16.1 kmh E 13.4 mph21.6 kmh 24.92 in843.9 mb 0.00 in0.0 mm 0.00 in0.0 mm 0.00 in0.0 mm
07:30 PM 90.7°F32.6°C -5537.2°C - 8.0 mph ESE12.9 kmh ESE 10.1 mph16.3 kmh 24.92 in843.9 mb 0.00 in0.0 mm 0.00 in0.0 mm 0.00 in0.0 mm
07:35 PM 90.3°F32.4°C -5537.2°C - 7.0 mph ESE11.3 kmh ESE 13.4 mph21.6 kmh 24.92 in843.9 mb 0.00 in0.0 mm 0.00 in0.0 mm 0.00 in0.0 mm
07:40 PM 90.1°F32.3°C -5537.2°C - 7.0 mph ESE11.3 kmh ESE 11.6 mph18.7 kmh 24.95 in844.9 mb 0.00 in0.0 mm 0.00 in0.0 mm 0.00 in0.0 mm
07:45 PM 90.0°F32.2°C -5537.2°C - 7.0 mph ESE11.3 kmh ESE 12.1 mph19.5 kmh 24.95 in844.9 mb 0.00 in0.0 mm 0.00 in0.0 mm 0.00 in0.0 mm
07:50 PM 89.8°F32.1°C -5537.2°C - 7.0 mph ESE11.3 kmh ESE 12.5 mph20.1 kmh 24.95 in844.9 mb 0.00 in0.0 mm 0.00 in0.0 mm 0.00 in0.0 mm
07:55 PM 89.6°F32.0°C -5537.2°C - 7.0 mph E11.3 kmh E 10.5 mph16.9 kmh 24.95 in844.9 mb 0.00 in0.0 mm 0.00 in0.0 mm 0.00 in0.0 mm
08:00 PM 89.1°F31.7°C -5537.2°C - 5.0 mph E8.0 kmh E 7.8 mph12.6 kmh 24.95 in844.9 mb 0.00 in0.0 mm 0.00 in0.0 mm 0.00 in0.0 mm
08:05 PM 88.2°F31.2°C -5537.2°C - 5.0 mph E8.0 kmh E 6.7 mph10.8 kmh 24.95 in844.9 mb 0.00 in0.0 mm 0.00 in0.0 mm 0.00 in0.0 mm
08:10 PM 87.4°F30.8°C -5537.2°C - 6.0 mph ENE9.7 kmh ENE 10.1 mph16.3 kmh 24.95 in844.9 mb 0.00 in0.0 mm 0.00 in0.0 mm 0.00 in0.0 mm
08:15 PM 87.3°F30.7°C -5537.2°C - 6.0 mph ENE9.7 kmh ENE 8.3 mph13.4 kmh 24.95 in844.9 mb 0.00 in0.0 mm 0.00 in0.0 mm 0.00 in0.0 mm
08:20 PM 86.7°F30.4°C -5537.2°C - 6.0 mph ENE9.7 kmh ENE 6.9 mph11.1 kmh 24.95 in844.9 mb 0.00 in0.0 mm 0.00 in0.0 mm 0.00 in0.0 mm
08:25 PM 86.5°F30.3°C -5537.2°C - 6.0 mph ENE9.7 kmh ENE 9.2 mph14.8 kmh 24.95 in844.9 mb 0.00 in0.0 mm 0.00 in0.0 mm 0.00 in0.0 mm
08:30 PM 86.2°F30.1°C -5537.2°C - 6.0 mph ENE9.7 kmh ENE 9.2 mph14.8 kmh 24.95 in844.9 mb 0.00 in0.0 mm 0.00 in0.0 mm 0.00 in0.0 mm
08:35 PM 85.8°F29.9°C -5537.2°C - 6.0 mph ENE9.7 kmh ENE 9.2 mph14.8 kmh 24.95 in844.9 mb 0.00 in0.0 mm 0.00 in0.0 mm 0.00 in0.0 mm
08:40 PM 85.3°F29.6°C -5537.2°C - 7.0 mph ENE11.3 kmh ENE 9.6 mph15.4 kmh 24.95 in844.9 mb 0.00 in0.0 mm 0.00 in0.0 mm 0.00 in0.0 mm
08:45 PM 85.1°F29.5°C -5537.2°C - 7.0 mph ENE11.3 kmh ENE 9.2 mph14.8 kmh 24.95 in844.9 mb 0.00 in0.0 mm 0.00 in0.0 mm 0.00 in0.0 mm
08:50 PM 84.9°F29.4°C -5537.2°C - 7.0 mph E11.3 kmh E 11.0 mph17.7 kmh 24.95 in844.9 mb 0.00 in0.0 mm 0.00 in0.0 mm 0.00 in0.0 mm
08:55 PM 84.6°F29.2°C -5537.2°C - 8.0 mph E12.9 kmh E 11.0 mph17.7 kmh 24.95 in844.9 mb 0.00 in0.0 mm 0.00 in0.0 mm 0.00 in0.0 mm
09:00 PM 84.2°F29.0°C -5537.2°C - 8.0 mph E12.9 kmh E 10.5 mph16.9 kmh 24.95 in844.9 mb 0.00 in0.0 mm 0.00 in0.0 mm 0.00 in0.0 mm
09:05 PM 83.8°F28.8°C -5537.2°C - 8.0 mph ENE12.9 kmh ENE 11.0 mph17.7 kmh 24.95 in844.9 mb 0.00 in0.0 mm 0.00 in0.0 mm 0.00 in0.0 mm
09:10 PM 83.8°F28.8°C -5537.2°C - 8.0 mph ENE12.9 kmh ENE 11.0 mph17.7 kmh 24.95 in844.9 mb 0.00 in0.0 mm 0.00 in0.0 mm 0.00 in0.0 mm
09:15 PM 84.0°F28.9°C -5537.2°C - 8.0 mph ENE12.9 kmh ENE 11.6 mph18.7 kmh 24.95 in844.9 mb 0.00 in0.0 mm 0.00 in0.0 mm 0.00 in0.0 mm
09:20 PM 84.0°F28.9°C -5537.2°C - 9.0 mph E14.5 kmh E 11.6 mph18.7 kmh 24.95 in844.9 mb 0.00 in0.0 mm 0.00 in0.0 mm 0.00 in0.0 mm
09:25 PM 84.0°F28.9°C -5537.2°C - 9.0 mph E14.5 kmh E 13.4 mph21.6 kmh 24.95 in844.9 mb 0.00 in0.0 mm 0.00 in0.0 mm 0.00 in0.0 mm
09:30 PM 84.0°F28.9°C -5537.2°C - 10.0 mph E16.1 kmh E 12.1 mph19.5 kmh 24.95 in844.9 mb 0.00 in0.0 mm 0.00 in0.0 mm 0.00 in0.0 mm
09:35 PM 83.8°F28.8°C -5537.2°C - 9.0 mph E14.5 kmh E 15.2 mph24.5 kmh 24.95 in844.9 mb 0.00 in0.0 mm 0.00 in0.0 mm 0.00 in0.0 mm
09:40 PM 83.7°F28.7°C -5537.2°C - 9.0 mph E14.5 kmh E 11.6 mph18.7 kmh 24.95 in844.9 mb 0.00 in0.0 mm 0.00 in0.0 mm 0.00 in0.0 mm
09:45 PM 83.5°F28.6°C -5537.2°C - 9.0 mph E14.5 kmh E 12.5 mph20.1 kmh 24.95 in844.9 mb 0.00 in0.0 mm 0.00 in0.0 mm 0.00 in0.0 mm
09:50 PM 83.3°F28.5°C -5537.2°C - 9.0 mph E14.5 kmh E 11.6 mph18.7 kmh 24.95 in844.9 mb 0.00 in0.0 mm 0.00 in0.0 mm 0.00 in0.0 mm
09:55 PM 83.5°F28.6°C -5537.2°C - 9.0 mph E14.5 kmh E 12.1 mph19.5 kmh 24.98 in845.9 mb 0.00 in0.0 mm 0.00 in0.0 mm 0.00 in0.0 mm
10:00 PM 83.3°F28.5°C -5537.2°C - 8.0 mph E12.9 kmh E 11.6 mph18.7 kmh 24.98 in845.9 mb 0.00 in0.0 mm 0.00 in0.0 mm 0.00 in0.0 mm
10:05 PM 83.5°F28.6°C -5537.2°C - 8.0 mph E12.9 kmh E 13.4 mph21.6 kmh 24.98 in845.9 mb 0.00 in0.0 mm 0.00 in0.0 mm 0.00 in0.0 mm
10:10 PM 83.5°F28.6°C -5537.2°C - 9.0 mph E14.5 kmh E 13.4 mph21.6 kmh 24.98 in845.9 mb 0.00 in0.0 mm 0.00 in0.0 mm 0.00 in0.0 mm
10:15 PM 83.5°F28.6°C -5537.2°C - 9.0 mph E14.5 kmh E 12.5 mph20.1 kmh 24.98 in845.9 mb 0.00 in0.0 mm 0.00 in0.0 mm 0.00 in0.0 mm
10:20 PM 83.3°F28.5°C -5537.2°C - 9.0 mph E14.5 kmh E 12.5 mph20.1 kmh 24.98 in845.9 mb 0.00 in0.0 mm 0.00 in0.0 mm 0.00 in0.0 mm
10:25 PM 83.3°F28.5°C -5537.2°C - 9.0 mph E14.5 kmh E 13.0 mph20.9 kmh 24.98 in845.9 mb 0.00 in0.0 mm 0.00 in0.0 mm 0.00 in0.0 mm
10:30 PM 83.5°F28.6°C -5537.2°C - 9.0 mph E14.5 kmh E 13.9 mph22.4 kmh 24.98 in845.9 mb 0.00 in0.0 mm 0.00 in0.0 mm 0.00 in0.0 mm
10:35 PM 83.5°F28.6°C -5537.2°C - 9.0 mph E14.5 kmh E 13.9 mph22.4 kmh 24.98 in845.9 mb 0.00 in0.0 mm 0.00 in0.0 mm 0.00 in0.0 mm
10:40 PM 83.1°F28.4°C -5537.2°C - 8.0 mph E12.9 kmh E 10.1 mph16.3 kmh 24.98 in845.9 mb 0.00 in0.0 mm 0.00 in0.0 mm 0.00 in0.0 mm
10:45 PM 82.9°F28.3°C -5537.2°C - 7.0 mph E11.3 kmh E 11.0 mph17.7 kmh 24.98 in845.9 mb 0.00 in0.0 mm 0.00 in0.0 mm 0.00 in0.0 mm
10:50 PM 82.2°F27.9°C -5537.2°C - 5.0 mph E8.0 kmh E 8.3 mph13.4 kmh 24.98 in845.9 mb 0.00 in0.0 mm 0.00 in0.0 mm 0.00 in0.0 mm
10:55 PM 81.7°F27.6°C -5537.2°C - 6.0 mph SSE9.7 kmh SSE 13.9 mph22.4 kmh 24.98 in845.9 mb 0.00 in0.0 mm 0.00 in0.0 mm 0.00 in0.0 mm
11:00 PM 81.3°F27.4°C -5537.2°C - 10.0 mph SSE16.1 kmh SSE 20.1 mph32.3 kmh 24.98 in845.9 mb 0.00 in0.0 mm 0.00 in0.0 mm 0.00 in0.0 mm
11:05 PM 80.4°F26.9°C -5537.2°C - 12.0 mph SE19.3 kmh SE 21.5 mph34.6 kmh 24.98 in845.9 mb 0.00 in0.0 mm 0.00 in0.0 mm 0.00 in0.0 mm
11:10 PM 79.9°F26.6°C -5537.2°C - 12.0 mph SE19.3 kmh SE 19.0 mph30.6 kmh 25.01 in846.9 mb 0.00 in0.0 mm 0.00 in0.0 mm 0.00 in0.0 mm
11:15 PM 79.5°F26.4°C -5537.2°C - 11.0 mph SSE17.7 kmh SSE 15.9 mph25.6 kmh 25.01 in846.9 mb 0.00 in0.0 mm 0.00 in0.0 mm 0.00 in0.0 mm
11:20 PM 79.3°F26.3°C -5537.2°C - 11.0 mph SSE17.7 kmh SSE 16.8 mph27.0 kmh 25.01 in846.9 mb 0.00 in0.0 mm 0.00 in0.0 mm 0.00 in0.0 mm
11:25 PM 78.8°F26.0°C -5537.2°C - 10.0 mph SSE16.1 kmh SSE 16.3 mph26.2 kmh 25.01 in846.9 mb 0.00 in0.0 mm 0.00 in0.0 mm 0.00 in0.0 mm
11:30 PM 78.8°F26.0°C -5537.2°C - 10.0 mph SSE16.1 kmh SSE 18.1 mph29.1 kmh 25.01 in846.9 mb 0.00 in0.0 mm 0.00 in0.0 mm 0.00 in0.0 mm
11:35 PM 78.6°F25.9°C -5537.2°C - 11.0 mph SE17.7 kmh SE 16.3 mph26.2 kmh 25.01 in846.9 mb 0.00 in0.0 mm 0.00 in0.0 mm 0.00 in0.0 mm
11:40 PM 78.8°F26.0°C -5537.2°C - 10.0 mph SSE16.1 kmh SSE 16.3 mph26.2 kmh 25.01 in846.9 mb 0.00 in0.0 mm 0.00 in0.0 mm 0.00 in0.0 mm
11:46 PM 78.6°F25.9°C -5537.2°C - 10.0 mph SSE16.1 kmh SSE 14.3 mph23.0 kmh 25.01 in846.9 mb 0.00 in0.0 mm 0.00 in0.0 mm 0.00 in0.0 mm
11:51 PM 78.6°F25.9°C -5537.2°C - 10.0 mph SE16.1 kmh SE 16.3 mph26.2 kmh 25.01 in846.9 mb 0.00 in0.0 mm 0.00 in0.0 mm 0.00 in0.0 mm
11:56 PM 78.3°F25.7°C -5537.2°C - 10.0 mph SE16.1 kmh SE 13.0 mph20.9 kmh 25.01 in846.9 mb 0.00 in0.0 mm 0.00 in0.0 mm 0.00 in0.0 mm